sensor_id;sensor_type;location;lat;lon;timestamp;P1;durP1;ratioP1;P2;durP2;ratioP2
85218;SDS011;75606;40.152;44.490;2024-02-28T00:01:24;21.67;;;10.00;;
85218;SDS011;75606;40.152;44.490;2024-02-28T00:03:50;21.42;;;11.10;;
85218;SDS011;75606;40.152;44.490;2024-02-28T00:06:16;24.63;;;11.20;;
85218;SDS011;75606;40.152;44.490;2024-02-28T00:08:42;25.33;;;10.30;;
85218;SDS011;75606;40.152;44.490;2024-02-28T00:11:07;26.13;;;10.52;;
85218;SDS011;75606;40.152;44.490;2024-02-28T00:13:33;23.60;;;9.73;;
85218;SDS011;75606;40.152;44.490;2024-02-28T00:15:59;24.40;;;10.35;;
85218;SDS011;75606;40.152;44.490;2024-02-28T00:18:24;24.10;;;10.52;;
85218;SDS011;75606;40.152;44.490;2024-02-28T00:20:50;28.02;;;12.00;;
85218;SDS011;75606;40.152;44.490;2024-02-28T00:23:15;26.73;;;11.85;;
85218;SDS011;75606;40.152;44.490;2024-02-28T00:25:41;25.98;;;12.15;;
85218;SDS011;75606;40.152;44.490;2024-02-28T00:28:07;28.40;;;10.32;;
85218;SDS011;75606;40.152;44.490;2024-02-28T00:30:33;24.63;;;9.13;;
85218;SDS011;75606;40.152;44.490;2024-02-28T00:32:59;22.27;;;9.13;;
85218;SDS011;75606;40.152;44.490;2024-02-28T00:35:25;18.33;;;8.52;;
85218;SDS011;75606;40.152;44.490;2024-02-28T00:37:51;22.00;;;9.55;;
85218;SDS011;75606;40.152;44.490;2024-02-28T00:40:16;24.08;;;9.10;;
85218;SDS011;75606;40.152;44.490;2024-02-28T00:42:42;17.15;;;7.75;;
85218;SDS011;75606;40.152;44.490;2024-02-28T00:45:08;18.17;;;7.70;;
85218;SDS011;75606;40.152;44.490;2024-02-28T00:47:34;20.52;;;8.70;;
85218;SDS011;75606;40.152;44.490;2024-02-28T00:50:00;19.23;;;8.20;;
85218;SDS011;75606;40.152;44.490;2024-02-28T00:52:28;21.60;;;9.05;;
85218;SDS011;75606;40.152;44.490;2024-02-28T00:54:54;18.95;;;8.38;;
85218;SDS011;75606;40.152;44.490;2024-02-28T00:57:20;19.70;;;10.43;;
85218;SDS011;75606;40.152;44.490;2024-02-28T00:59:46;23.75;;;9.82;;
85218;SDS011;75606;40.152;44.490;2024-02-28T01:02:11;18.45;;;9.77;;
85218;SDS011;75606;40.152;44.490;2024-02-28T01:04:39;21.92;;;10.68;;
85218;SDS011;75606;40.152;44.490;2024-02-28T01:07:05;26.23;;;11.35;;
85218;SDS011;75606;40.152;44.490;2024-02-28T01:09:30;20.88;;;11.63;;
85218;SDS011;75606;40.152;44.490;2024-02-28T01:11:56;25.70;;;10.55;;
85218;SDS011;75606;40.152;44.490;2024-02-28T01:14:21;23.98;;;10.38;;
85218;SDS011;75606;40.152;44.490;2024-02-28T01:16:47;21.52;;;10.38;;
85218;SDS011;75606;40.152;44.490;2024-02-28T01:19:15;25.02;;;10.63;;
85218;SDS011;75606;40.152;44.490;2024-02-28T01:21:41;23.70;;;10.55;;
85218;SDS011;75606;40.152;44.490;2024-02-28T01:24:06;20.98;;;10.25;;
85218;SDS011;75606;40.152;44.490;2024-02-28T01:26:32;25.58;;;10.52;;
85218;SDS011;75606;40.152;44.490;2024-02-28T01:28:58;23.40;;;9.93;;
85218;SDS011;75606;40.152;44.490;2024-02-28T01:31:23;26.05;;;11.75;;
85218;SDS011;75606;40.152;44.490;2024-02-28T01:33:49;26.88;;;11.35;;
85218;SDS011;75606;40.152;44.490;2024-02-28T01:36:15;27.98;;;11.18;;
85218;SDS011;75606;40.152;44.490;2024-02-28T01:38:40;20.38;;;10.15;;
85218;SDS011;75606;40.152;44.490;2024-02-28T01:41:06;22.23;;;9.68;;
85218;SDS011;75606;40.152;44.490;2024-02-28T01:43:32;21.10;;;10.90;;
85218;SDS011;75606;40.152;44.490;2024-02-28T01:46:01;28.05;;;10.50;;
85218;SDS011;75606;40.152;44.490;2024-02-28T01:48:28;25.20;;;15.27;;
85218;SDS011;75606;40.152;44.490;2024-02-28T01:50:54;22.38;;;11.23;;
85218;SDS011;75606;40.152;44.490;2024-02-28T01:53:20;20.40;;;10.07;;
85218;SDS011;75606;40.152;44.490;2024-02-28T01:55:47;19.67;;;10.02;;
85218;SDS011;75606;40.152;44.490;2024-02-28T01:58:12;40.20;;;19.58;;
85218;SDS011;75606;40.152;44.490;2024-02-28T02:00:38;25.27;;;11.98;;
85218;SDS011;75606;40.152;44.490;2024-02-28T02:03:05;22.67;;;9.95;;
85218;SDS011;75606;40.152;44.490;2024-02-28T02:05:30;21.73;;;9.07;;
85218;SDS011;75606;40.152;44.490;2024-02-28T02:07:56;20.60;;;8.73;;
85218;SDS011;75606;40.152;44.490;2024-02-28T02:10:23;19.70;;;9.25;;
85218;SDS011;75606;40.152;44.490;2024-02-28T02:12:49;28.40;;;9.32;;
85218;SDS011;75606;40.152;44.490;2024-02-28T02:15:15;20.55;;;9.88;;
85218;SDS011;75606;40.152;44.490;2024-02-28T02:17:40;15.90;;;8.38;;
85218;SDS011;75606;40.152;44.490;2024-02-28T02:20:07;31.92;;;11.00;;
85218;SDS011;75606;40.152;44.490;2024-02-28T02:22:38;29.75;;;12.13;;
85218;SDS011;75606;40.152;44.490;2024-02-28T02:25:04;28.50;;;12.10;;
85218;SDS011;75606;40.152;44.490;2024-02-28T02:27:29;31.70;;;11.82;;
85218;SDS011;75606;40.152;44.490;2024-02-28T02:29:55;27.92;;;12.40;;
85218;SDS011;75606;40.152;44.490;2024-02-28T02:32:21;28.63;;;11.77;;
85218;SDS011;75606;40.152;44.490;2024-02-28T02:34:46;31.40;;;11.70;;
85218;SDS011;75606;40.152;44.490;2024-02-28T02:37:12;25.83;;;11.05;;
85218;SDS011;75606;40.152;44.490;2024-02-28T02:39:38;31.67;;;12.02;;
85218;SDS011;75606;40.152;44.490;2024-02-28T02:42:04;30.50;;;12.02;;
85218;SDS011;75606;40.152;44.490;2024-02-28T02:44:30;27.55;;;12.48;;
85218;SDS011;75606;40.152;44.490;2024-02-28T02:46:55;23.98;;;10.75;;
85218;SDS011;75606;40.152;44.490;2024-02-28T02:49:21;27.02;;;11.88;;
85218;SDS011;75606;40.152;44.490;2024-02-28T02:51:46;31.42;;;13.40;;
85218;SDS011;75606;40.152;44.490;2024-02-28T02:54:12;29.67;;;11.32;;
85218;SDS011;75606;40.152;44.490;2024-02-28T02:56:40;32.42;;;12.82;;
85218;SDS011;75606;40.152;44.490;2024-02-28T02:59:08;27.83;;;11.05;;
85218;SDS011;75606;40.152;44.490;2024-02-28T03:01:35;28.73;;;10.82;;
85218;SDS011;75606;40.152;44.490;2024-02-28T03:04:00;32.17;;;11.40;;
85218;SDS011;75606;40.152;44.490;2024-02-28T03:06:26;29.13;;;12.45;;
85218;SDS011;75606;40.152;44.490;2024-02-28T03:08:52;28.48;;;11.32;;
85218;SDS011;75606;40.152;44.490;2024-02-28T03:11:18;26.77;;;11.32;;
85218;SDS011;75606;40.152;44.490;2024-02-28T03:13:43;27.63;;;10.75;;
85218;SDS011;75606;40.152;44.490;2024-02-28T03:16:09;26.95;;;10.57;;
85218;SDS011;75606;40.152;44.490;2024-02-28T03:18:34;30.35;;;12.57;;
85218;SDS011;75606;40.152;44.490;2024-02-28T03:21:00;26.88;;;11.75;;
85218;SDS011;75606;40.152;44.490;2024-02-28T03:23:27;28.13;;;11.25;;
85218;SDS011;75606;40.152;44.490;2024-02-28T03:25:52;24.23;;;10.13;;
85218;SDS011;75606;40.152;44.490;2024-02-28T03:28:18;27.65;;;10.73;;
85218;SDS011;75606;40.152;44.490;2024-02-28T03:30:44;29.40;;;11.45;;
85218;SDS011;75606;40.152;44.490;2024-02-28T03:33:10;32.15;;;10.38;;
85218;SDS011;75606;40.152;44.490;2024-02-28T03:35:35;29.90;;;11.95;;
85218;SDS011;75606;40.152;44.490;2024-02-28T03:38:01;32.10;;;11.65;;
85218;SDS011;75606;40.152;44.490;2024-02-28T03:40:27;27.42;;;11.48;;
85218;SDS011;75606;40.152;44.490;2024-02-28T03:42:52;33.90;;;15.65;;
85218;SDS011;75606;40.152;44.490;2024-02-28T03:45:19;31.83;;;13.90;;
85218;SDS011;75606;40.152;44.490;2024-02-28T03:47:50;31.70;;;12.18;;
85218;SDS011;75606;40.152;44.490;2024-02-28T03:50:16;29.83;;;11.38;;
85218;SDS011;75606;40.152;44.490;2024-02-28T03:52:42;39.40;;;17.40;;
85218;SDS011;75606;40.152;44.490;2024-02-28T03:55:07;30.73;;;13.80;;
85218;SDS011;75606;40.152;44.490;2024-02-28T03:57:33;52.55;;;18.52;;
85218;SDS011;75606;40.152;44.490;2024-02-28T04:00:00;42.28;;;15.55;;
85218;SDS011;75606;40.152;44.490;2024-02-28T04:02:27;37.60;;;14.85;;
85218;SDS011;75606;40.152;44.490;2024-02-28T04:04:53;38.90;;;12.82;;
85218;SDS011;75606;40.152;44.490;2024-02-28T04:07:18;28.50;;;11.57;;
85218;SDS011;75606;40.152;44.490;2024-02-28T04:09:44;36.65;;;13.63;;
85218;SDS011;75606;40.152;44.490;2024-02-28T04:12:10;35.15;;;13.13;;
85218;SDS011;75606;40.152;44.490;2024-02-28T04:14:37;25.90;;;11.27;;
85218;SDS011;75606;40.152;44.490;2024-02-28T04:17:03;34.13;;;12.18;;
85218;SDS011;75606;40.152;44.490;2024-02-28T04:19:32;31.30;;;11.80;;
85218;SDS011;75606;40.152;44.490;2024-02-28T04:22:01;23.90;;;10.38;;
85218;SDS011;75606;40.152;44.490;2024-02-28T04:24:26;28.05;;;11.10;;
85218;SDS011;75606;40.152;44.490;2024-02-28T04:26:52;28.10;;;12.00;;
85218;SDS011;75606;40.152;44.490;2024-02-28T04:29:18;30.52;;;12.95;;
85218;SDS011;75606;40.152;44.490;2024-02-28T04:31:44;27.40;;;11.30;;
85218;SDS011;75606;40.152;44.490;2024-02-28T04:34:09;24.50;;;11.15;;
85218;SDS011;75606;40.152;44.490;2024-02-28T04:36:35;23.50;;;11.20;;
85218;SDS011;75606;40.152;44.490;2024-02-28T04:39:01;25.75;;;12.00;;
85218;SDS011;75606;40.152;44.490;2024-02-28T04:41:27;25.92;;;13.82;;
85218;SDS011;75606;40.152;44.490;2024-02-28T04:43:53;29.75;;;14.32;;
85218;SDS011;75606;40.152;44.490;2024-02-28T04:46:19;33.67;;;15.05;;
85218;SDS011;75606;40.152;44.490;2024-02-28T04:48:44;28.55;;;14.30;;
85218;SDS011;75606;40.152;44.490;2024-02-28T04:51:10;28.35;;;12.95;;
85218;SDS011;75606;40.152;44.490;2024-02-28T04:53:36;28.35;;;13.40;;
85218;SDS011;75606;40.152;44.490;2024-02-28T04:56:01;26.80;;;13.52;;
85218;SDS011;75606;40.152;44.490;2024-02-28T04:58:27;26.63;;;12.98;;
85218;SDS011;75606;40.152;44.490;2024-02-28T05:00:54;23.90;;;12.20;;
85218;SDS011;75606;40.152;44.490;2024-02-28T05:03:19;24.30;;;13.25;;
85218;SDS011;75606;40.152;44.490;2024-02-28T05:05:47;24.92;;;10.82;;
85218;SDS011;75606;40.152;44.490;2024-02-28T05:08:13;27.20;;;12.45;;
85218;SDS011;75606;40.152;44.490;2024-02-28T05:10:38;28.40;;;15.10;;
85218;SDS011;75606;40.152;44.490;2024-02-28T05:13:05;31.08;;;15.52;;
85218;SDS011;75606;40.152;44.490;2024-02-28T05:15:30;31.63;;;16.55;;
85218;SDS011;75606;40.152;44.490;2024-02-28T05:17:57;30.25;;;15.43;;
85218;SDS011;75606;40.152;44.490;2024-02-28T05:20:22;22.35;;;12.02;;
85218;SDS011;75606;40.152;44.490;2024-02-28T05:22:48;25.30;;;12.05;;
85218;SDS011;75606;40.152;44.490;2024-02-28T05:25:14;27.63;;;16.20;;
85218;SDS011;75606;40.152;44.490;2024-02-28T05:27:39;24.10;;;13.98;;
85218;SDS011;75606;40.152;44.490;2024-02-28T05:30:05;24.88;;;14.13;;
85218;SDS011;75606;40.152;44.490;2024-02-28T05:32:32;23.63;;;11.98;;
85218;SDS011;75606;40.152;44.490;2024-02-28T05:34:58;25.70;;;15.65;;
85218;SDS011;75606;40.152;44.490;2024-02-28T05:37:23;24.25;;;14.88;;
85218;SDS011;75606;40.152;44.490;2024-02-28T05:39:50;26.98;;;15.82;;
85218;SDS011;75606;40.152;44.490;2024-02-28T05:42:15;23.60;;;14.75;;
85218;SDS011;75606;40.152;44.490;2024-02-28T05:44:47;23.23;;;13.57;;
85218;SDS011;75606;40.152;44.490;2024-02-28T05:47:13;26.42;;;14.00;;
85218;SDS011;75606;40.152;44.490;2024-02-28T05:49:39;27.27;;;16.83;;
85218;SDS011;75606;40.152;44.490;2024-02-28T05:52:05;25.88;;;15.05;;
85218;SDS011;75606;40.152;44.490;2024-02-28T05:54:30;18.38;;;11.18;;
85218;SDS011;75606;40.152;44.490;2024-02-28T05:56:56;19.63;;;10.15;;
85218;SDS011;75606;40.152;44.490;2024-02-28T05:59:23;23.05;;;12.10;;
85218;SDS011;75606;40.152;44.490;2024-02-28T06:01:50;16.77;;;10.30;;
85218;SDS011;75606;40.152;44.490;2024-02-28T06:04:16;23.17;;;12.05;;
85218;SDS011;75606;40.152;44.490;2024-02-28T06:06:41;20.88;;;11.95;;
85218;SDS011;75606;40.152;44.490;2024-02-28T06:09:07;16.98;;;8.30;;
85218;SDS011;75606;40.152;44.490;2024-02-28T06:11:33;15.93;;;8.40;;
85218;SDS011;75606;40.152;44.490;2024-02-28T06:13:59;17.73;;;8.93;;
85218;SDS011;75606;40.152;44.490;2024-02-28T06:16:24;20.58;;;10.75;;
85218;SDS011;75606;40.152;44.490;2024-02-28T06:18:50;21.98;;;11.23;;
85218;SDS011;75606;40.152;44.490;2024-02-28T06:21:16;18.25;;;9.00;;
85218;SDS011;75606;40.152;44.490;2024-02-28T06:23:41;17.80;;;11.32;;
85218;SDS011;75606;40.152;44.490;2024-02-28T06:26:07;23.83;;;10.85;;
85218;SDS011;75606;40.152;44.490;2024-02-28T06:28:40;24.67;;;11.80;;
85218;SDS011;75606;40.152;44.490;2024-02-28T06:31:11;21.25;;;10.77;;
85218;SDS011;75606;40.152;44.490;2024-02-28T06:33:39;18.90;;;8.88;;
85218;SDS011;75606;40.152;44.490;2024-02-28T06:36:04;19.70;;;11.10;;
85218;SDS011;75606;40.152;44.490;2024-02-28T06:38:30;21.75;;;12.98;;
85218;SDS011;75606;40.152;44.490;2024-02-28T06:40:56;25.42;;;13.27;;
85218;SDS011;75606;40.152;44.490;2024-02-28T06:43:22;18.50;;;10.65;;
85218;SDS011;75606;40.152;44.490;2024-02-28T06:45:47;23.25;;;11.60;;
85218;SDS011;75606;40.152;44.490;2024-02-28T06:48:13;22.98;;;12.05;;
85218;SDS011;75606;40.152;44.490;2024-02-28T06:50:38;20.42;;;11.38;;
85218;SDS011;75606;40.152;44.490;2024-02-28T06:53:04;23.40;;;11.45;;
85218;SDS011;75606;40.152;44.490;2024-02-28T06:55:29;16.25;;;9.80;;
85218;SDS011;75606;40.152;44.490;2024-02-28T06:57:55;17.65;;;9.60;;
85218;SDS011;75606;40.152;44.490;2024-02-28T07:00:22;21.77;;;11.82;;
85218;SDS011;75606;40.152;44.490;2024-02-28T07:02:47;18.55;;;9.70;;
85218;SDS011;75606;40.152;44.490;2024-02-28T07:05:13;19.60;;;12.32;;
85218;SDS011;75606;40.152;44.490;2024-02-28T07:07:38;18.80;;;11.15;;
85218;SDS011;75606;40.152;44.490;2024-02-28T07:10:04;19.55;;;9.98;;
85218;SDS011;75606;40.152;44.490;2024-02-28T07:12:30;17.98;;;10.73;;
85218;SDS011;75606;40.152;44.490;2024-02-28T07:14:57;18.65;;;10.55;;
85218;SDS011;75606;40.152;44.490;2024-02-28T07:17:22;20.67;;;10.90;;
85218;SDS011;75606;40.152;44.490;2024-02-28T07:19:48;17.60;;;9.70;;
85218;SDS011;75606;40.152;44.490;2024-02-28T07:22:14;19.23;;;10.18;;
85218;SDS011;75606;40.152;44.490;2024-02-28T07:24:41;19.25;;;9.27;;
85218;SDS011;75606;40.152;44.490;2024-02-28T07:27:07;13.55;;;8.43;;
85218;SDS011;75606;40.152;44.490;2024-02-28T07:29:33;17.05;;;9.77;;
85218;SDS011;75606;40.152;44.490;2024-02-28T07:31:59;17.02;;;9.73;;
85218;SDS011;75606;40.152;44.490;2024-02-28T07:34:27;21.60;;;10.80;;
85218;SDS011;75606;40.152;44.490;2024-02-28T07:36:53;16.65;;;9.27;;
85218;SDS011;75606;40.152;44.490;2024-02-28T09:38:03;11.88;;;9.48;;
85218;SDS011;75606;40.152;44.490;2024-02-28T09:40:29;15.48;;;9.82;;
85218;SDS011;75606;40.152;44.490;2024-02-28T09:43:11;10.68;;;8.20;;
85218;SDS011;75606;40.152;44.490;2024-02-28T09:45:57;13.60;;;8.43;;
85218;SDS011;75606;40.152;44.490;2024-02-28T09:48:27;14.48;;;8.25;;
85218;SDS011;75606;40.152;44.490;2024-02-28T09:50:54;14.10;;;8.57;;
85218;SDS011;75606;40.152;44.490;2024-02-28T09:53:21;14.63;;;9.75;;
85218;SDS011;75606;40.152;44.490;2024-02-28T09:55:49;9.85;;;8.27;;
85218;SDS011;75606;40.152;44.490;2024-02-28T09:58:17;14.98;;;9.25;;
85218;SDS011;75606;40.152;44.490;2024-02-28T10:00:44;15.85;;;8.13;;
85218;SDS011;75606;40.152;44.490;2024-02-28T10:03:16;14.15;;;8.23;;
85218;SDS011;75606;40.152;44.490;2024-02-28T10:06:05;11.57;;;7.85;;
85218;SDS011;75606;40.152;44.490;2024-02-28T10:08:38;12.25;;;8.15;;
85218;SDS011;75606;40.152;44.490;2024-02-28T10:11:04;15.13;;;9.70;;
85218;SDS011;75606;40.152;44.490;2024-02-28T10:13:31;14.30;;;8.25;;
85218;SDS011;75606;40.152;44.490;2024-02-28T10:15:56;13.40;;;9.07;;
85218;SDS011;75606;40.152;44.490;2024-02-28T10:18:22;14.35;;;7.45;;
85218;SDS011;75606;40.152;44.490;2024-02-28T10:20:47;14.02;;;9.70;;
85218;SDS011;75606;40.152;44.490;2024-02-28T10:23:13;14.77;;;9.50;;
85218;SDS011;75606;40.152;44.490;2024-02-28T10:25:41;13.80;;;9.18;;
85218;SDS011;75606;40.152;44.490;2024-02-28T10:28:09;12.70;;;8.32;;
85218;SDS011;75606;40.152;44.490;2024-02-28T10:30:38;14.82;;;8.55;;
85218;SDS011;75606;40.152;44.490;2024-02-28T10:33:14;13.80;;;9.30;;
85218;SDS011;75606;40.152;44.490;2024-02-28T10:35:41;14.23;;;8.88;;
85218;SDS011;75606;40.152;44.490;2024-02-28T10:38:11;15.38;;;8.63;;
85218;SDS011;75606;40.152;44.490;2024-02-28T10:40:38;16.13;;;8.82;;
85218;SDS011;75606;40.152;44.490;2024-02-28T10:43:05;15.27;;;10.23;;
85218;SDS011;75606;40.152;44.490;2024-02-28T10:45:33;13.93;;;9.25;;
85218;SDS011;75606;40.152;44.490;2024-02-28T10:48:04;11.70;;;8.75;;
85218;SDS011;75606;40.152;44.490;2024-02-28T10:50:30;12.55;;;8.05;;
85218;SDS011;75606;40.152;44.490;2024-02-28T10:52:58;13.38;;;8.57;;
85218;SDS011;75606;40.152;44.490;2024-02-28T10:55:30;15.95;;;9.15;;
85218;SDS011;75606;40.152;44.490;2024-02-28T10:58:09;15.00;;;8.98;;
85218;SDS011;75606;40.152;44.490;2024-02-28T11:00:36;16.40;;;9.95;;
85218;SDS011;75606;40.152;44.490;2024-02-28T11:05:39;15.82;;;10.18;;
85218;SDS011;75606;40.152;44.490;2024-02-28T11:08:38;19.35;;;10.40;;
85218;SDS011;75606;40.152;44.490;2024-02-28T11:11:03;15.40;;;9.75;;
85218;SDS011;75606;40.152;44.490;2024-02-28T11:13:29;17.85;;;10.02;;
85218;SDS011;75606;40.152;44.490;2024-02-28T11:16:08;14.18;;;9.63;;
85218;SDS011;75606;40.152;44.490;2024-02-28T11:18:34;15.85;;;11.43;;
85218;SDS011;75606;40.152;44.490;2024-02-28T11:20:59;16.08;;;9.88;;
85218;SDS011;75606;40.152;44.490;2024-02-28T11:23:25;18.58;;;10.48;;
85218;SDS011;75606;40.152;44.490;2024-02-28T11:25:51;16.42;;;11.05;;
85218;SDS011;75606;40.152;44.490;2024-02-28T11:28:17;15.02;;;10.00;;
85218;SDS011;75606;40.152;44.490;2024-02-28T11:30:47;13.88;;;9.65;;
85218;SDS011;75606;40.152;44.490;2024-02-28T11:33:13;17.60;;;10.50;;
85218;SDS011;75606;40.152;44.490;2024-02-28T11:35:39;21.83;;;11.30;;
85218;SDS011;75606;40.152;44.490;2024-02-28T11:38:06;15.20;;;10.43;;
85218;SDS011;75606;40.152;44.490;2024-02-28T11:40:31;14.45;;;10.60;;
85218;SDS011;75606;40.152;44.490;2024-02-28T11:42:57;19.38;;;11.60;;
85218;SDS011;75606;40.152;44.490;2024-02-28T11:45:24;20.15;;;11.25;;
85218;SDS011;75606;40.152;44.490;2024-02-28T11:47:50;14.00;;;10.25;;
85218;SDS011;75606;40.152;44.490;2024-02-28T11:50:16;16.05;;;10.63;;
85218;SDS011;75606;40.152;44.490;2024-02-28T11:52:44;18.02;;;11.85;;
85218;SDS011;75606;40.152;44.490;2024-02-28T11:55:10;17.95;;;10.45;;
85218;SDS011;75606;40.152;44.490;2024-02-28T11:57:36;13.48;;;10.57;;
85218;SDS011;75606;40.152;44.490;2024-02-28T12:00:08;16.73;;;10.10;;
85218;SDS011;75606;40.152;44.490;2024-02-28T12:02:38;20.27;;;13.13;;
85218;SDS011;75606;40.152;44.490;2024-02-28T12:05:03;16.42;;;9.23;;
85218;SDS011;75606;40.152;44.490;2024-02-28T12:07:31;20.38;;;12.40;;
85218;SDS011;75606;40.152;44.490;2024-02-28T12:09:59;16.33;;;9.60;;
85218;SDS011;75606;40.152;44.490;2024-02-28T12:12:27;17.27;;;10.93;;
85218;SDS011;75606;40.152;44.490;2024-02-28T12:14:53;16.67;;;11.70;;
85218;SDS011;75606;40.152;44.490;2024-02-28T12:17:22;18.67;;;10.52;;
85218;SDS011;75606;40.152;44.490;2024-02-28T12:19:50;20.30;;;10.27;;
85218;SDS011;75606;40.152;44.490;2024-02-28T12:22:16;17.58;;;11.30;;
85218;SDS011;75606;40.152;44.490;2024-02-28T12:24:41;18.50;;;10.93;;
85218;SDS011;75606;40.152;44.490;2024-02-28T12:27:07;15.40;;;10.10;;
85218;SDS011;75606;40.152;44.490;2024-02-28T12:29:33;17.92;;;10.63;;
85218;SDS011;75606;40.152;44.490;2024-02-28T12:31:59;21.88;;;11.32;;
85218;SDS011;75606;40.152;44.490;2024-02-28T12:34:24;19.83;;;10.80;;
85218;SDS011;75606;40.152;44.490;2024-02-28T12:36:51;17.70;;;10.30;;
85218;SDS011;75606;40.152;44.490;2024-02-28T12:39:17;18.45;;;10.35;;
85218;SDS011;75606;40.152;44.490;2024-02-28T12:41:43;19.95;;;11.15;;
85218;SDS011;75606;40.152;44.490;2024-02-28T12:44:09;16.73;;;10.45;;
85218;SDS011;75606;40.152;44.490;2024-02-28T12:46:35;18.38;;;11.38;;
85218;SDS011;75606;40.152;44.490;2024-02-28T12:49:01;21.67;;;11.25;;
85218;SDS011;75606;40.152;44.490;2024-02-28T12:54:05;20.13;;;11.38;;
85218;SDS011;75606;40.152;44.490;2024-02-28T12:56:31;37.65;;;18.20;;
85218;SDS011;75606;40.152;44.490;2024-02-28T12:58:57;18.52;;;10.02;;
85218;SDS011;75606;40.152;44.490;2024-02-28T13:01:24;17.35;;;9.73;;
85218;SDS011;75606;40.152;44.490;2024-02-28T13:03:50;18.90;;;10.48;;
85218;SDS011;75606;40.152;44.490;2024-02-28T13:06:15;19.35;;;10.50;;
85218;SDS011;75606;40.152;44.490;2024-02-28T13:08:41;18.60;;;9.40;;
85218;SDS011;75606;40.152;44.490;2024-02-28T13:11:07;20.85;;;9.35;;
85218;SDS011;75606;40.152;44.490;2024-02-28T13:13:33;16.65;;;10.65;;
85218;SDS011;75606;40.152;44.490;2024-02-28T13:15:58;14.45;;;8.38;;
85218;SDS011;75606;40.152;44.490;2024-02-28T13:18:24;20.23;;;11.13;;
85218;SDS011;75606;40.152;44.490;2024-02-28T13:20:50;21.08;;;10.63;;
85218;SDS011;75606;40.152;44.490;2024-02-28T13:23:17;17.67;;;9.95;;
85218;SDS011;75606;40.152;44.490;2024-02-28T13:25:43;21.42;;;11.23;;
85218;SDS011;75606;40.152;44.490;2024-02-28T13:28:09;20.55;;;11.18;;
85218;SDS011;75606;40.152;44.490;2024-02-28T13:30:35;24.77;;;11.45;;
85218;SDS011;75606;40.152;44.490;2024-02-28T13:33:02;22.75;;;12.90;;
85218;SDS011;75606;40.152;44.490;2024-02-28T13:35:34;18.55;;;10.52;;
85218;SDS011;75606;40.152;44.490;2024-02-28T13:38:09;31.58;;;15.82;;
85218;SDS011;75606;40.152;44.490;2024-02-28T13:40:37;25.70;;;11.20;;
85218;SDS011;75606;40.152;44.490;2024-02-28T13:43:03;33.65;;;13.82;;
85218;SDS011;75606;40.152;44.490;2024-02-28T13:45:29;20.77;;;10.27;;
85218;SDS011;75606;40.152;44.490;2024-02-28T13:47:54;22.50;;;9.68;;
85218;SDS011;75606;40.152;44.490;2024-02-28T13:50:20;19.98;;;9.90;;
85218;SDS011;75606;40.152;44.490;2024-02-28T13:52:46;17.88;;;8.52;;
85218;SDS011;75606;40.152;44.490;2024-02-28T13:55:11;15.38;;;8.07;;
85218;SDS011;75606;40.152;44.490;2024-02-28T13:57:37;23.88;;;11.82;;
85218;SDS011;75606;40.152;44.490;2024-02-28T14:00:03;22.13;;;11.27;;
85218;SDS011;75606;40.152;44.490;2024-02-28T14:02:31;22.20;;;11.10;;
85218;SDS011;75606;40.152;44.490;2024-02-28T14:04:57;19.08;;;11.88;;
85218;SDS011;75606;40.152;44.490;2024-02-28T14:07:23;18.48;;;9.45;;
85218;SDS011;75606;40.152;44.490;2024-02-28T14:09:48;20.92;;;10.95;;
85218;SDS011;75606;40.152;44.490;2024-02-28T14:12:14;14.70;;;8.82;;
85218;SDS011;75606;40.152;44.490;2024-02-28T14:14:40;23.15;;;10.63;;
85218;SDS011;75606;40.152;44.490;2024-02-28T14:17:05;14.43;;;8.75;;
85218;SDS011;75606;40.152;44.490;2024-02-28T14:19:32;18.05;;;9.32;;
85218;SDS011;75606;40.152;44.490;2024-02-28T14:21:57;20.10;;;9.45;;
85218;SDS011;75606;40.152;44.490;2024-02-28T14:24:23;23.52;;;10.90;;
85218;SDS011;75606;40.152;44.490;2024-02-28T14:26:49;18.40;;;10.50;;
85218;SDS011;75606;40.152;44.490;2024-02-28T14:29:15;17.77;;;9.20;;
85218;SDS011;75606;40.152;44.490;2024-02-28T14:31:41;21.48;;;10.77;;
85218;SDS011;75606;40.152;44.490;2024-02-28T14:34:07;24.40;;;14.65;;
85218;SDS011;75606;40.152;44.490;2024-02-28T14:36:33;30.50;;;15.75;;
85218;SDS011;75606;40.152;44.490;2024-02-28T14:38:58;36.50;;;15.63;;
85218;SDS011;75606;40.152;44.490;2024-02-28T14:41:24;23.95;;;12.70;;
85218;SDS011;75606;40.152;44.490;2024-02-28T14:43:50;34.78;;;16.55;;
85218;SDS011;75606;40.152;44.490;2024-02-28T14:46:19;34.55;;;15.55;;
85218;SDS011;75606;40.152;44.490;2024-02-28T14:48:46;28.10;;;14.52;;
85218;SDS011;75606;40.152;44.490;2024-02-28T14:51:20;34.75;;;14.80;;
85218;SDS011;75606;40.152;44.490;2024-02-28T14:54:08;32.47;;;14.90;;
85218;SDS011;75606;40.152;44.490;2024-02-28T14:56:41;32.13;;;15.68;;
85218;SDS011;75606;40.152;44.490;2024-02-28T14:59:11;35.90;;;14.95;;
85218;SDS011;75606;40.152;44.490;2024-02-28T15:01:36;40.75;;;17.73;;
85218;SDS011;75606;40.152;44.490;2024-02-28T15:04:03;38.53;;;17.85;;
85218;SDS011;75606;40.152;44.490;2024-02-28T15:06:28;28.05;;;15.52;;
85218;SDS011;75606;40.152;44.490;2024-02-28T15:08:54;23.80;;;12.88;;
85218;SDS011;75606;40.152;44.490;2024-02-28T15:11:20;27.08;;;12.15;;
85218;SDS011;75606;40.152;44.490;2024-02-28T15:13:45;19.85;;;11.45;;
85218;SDS011;75606;40.152;44.490;2024-02-28T15:16:11;25.27;;;13.68;;
85218;SDS011;75606;40.152;44.490;2024-02-28T15:18:37;29.00;;;12.73;;
85218;SDS011;75606;40.152;44.490;2024-02-28T15:21:03;32.33;;;15.90;;
85218;SDS011;75606;40.152;44.490;2024-02-28T15:23:29;29.77;;;15.55;;
85218;SDS011;75606;40.152;44.490;2024-02-28T15:25:55;30.42;;;16.25;;
85218;SDS011;75606;40.152;44.490;2024-02-28T15:28:21;38.60;;;21.38;;
85218;SDS011;75606;40.152;44.490;2024-02-28T15:30:49;27.63;;;14.77;;
85218;SDS011;75606;40.152;44.490;2024-02-28T15:33:15;21.15;;;12.73;;
85218;SDS011;75606;40.152;44.490;2024-02-28T15:35:40;27.67;;;14.75;;
85218;SDS011;75606;40.152;44.490;2024-02-28T15:38:06;25.17;;;13.82;;
85218;SDS011;75606;40.152;44.490;2024-02-28T15:40:31;29.02;;;14.35;;
85218;SDS011;75606;40.152;44.490;2024-02-28T15:43:03;31.67;;;13.85;;
85218;SDS011;75606;40.152;44.490;2024-02-28T15:45:29;28.65;;;13.80;;
85218;SDS011;75606;40.152;44.490;2024-02-28T15:47:54;27.75;;;15.07;;
85218;SDS011;75606;40.152;44.490;2024-02-28T15:50:20;29.88;;;14.00;;
85218;SDS011;75606;40.152;44.490;2024-02-28T15:52:46;36.90;;;17.55;;
85218;SDS011;75606;40.152;44.490;2024-02-28T15:55:12;40.58;;;19.15;;
85218;SDS011;75606;40.152;44.490;2024-02-28T15:57:38;38.83;;;20.30;;
85218;SDS011;75606;40.152;44.490;2024-02-28T16:00:06;33.38;;;17.83;;
85218;SDS011;75606;40.152;44.490;2024-02-28T16:02:33;36.25;;;17.63;;
85218;SDS011;75606;40.152;44.490;2024-02-28T16:05:00;41.08;;;17.27;;
85218;SDS011;75606;40.152;44.490;2024-02-28T16:07:26;35.75;;;16.35;;
85218;SDS011;75606;40.152;44.490;2024-02-28T16:09:52;36.75;;;17.73;;
85218;SDS011;75606;40.152;44.490;2024-02-28T16:12:18;33.80;;;15.75;;